createdAt,value
2022-11-15T06:45:00.977Z,20
2022-11-15T06:46:00.073Z,20
2022-11-15T06:46:59.568Z,25
2022-11-15T06:48:00.046Z,25
2022-11-15T06:48:59.533Z,25
2022-11-15T06:50:00.010Z,25
2022-11-15T06:51:00.758Z,30
2022-11-15T06:52:00.460Z,30
2022-11-15T06:52:59.832Z,30
2022-11-15T06:53:59.849Z,30
2022-11-15T06:54:59.572Z,30
2022-11-15T06:56:04.608Z,35
2022-11-15T06:56:59.567Z,35
2022-11-15T06:57:59.570Z,35
2022-11-15T06:59:00.450Z,35
2022-11-15T07:00:00.713Z,40
2022-11-15T07:01:01.060Z,40
2022-11-15T07:01:59.865Z,40
2022-11-15T07:03:00.153Z,40
2022-11-15T07:04:00.177Z,45
2022-11-15T07:04:59.687Z,45
2022-11-15T07:06:07.288Z,45
2022-11-15T07:07:00.215Z,45
2022-11-15T07:08:00.781Z,45
2022-11-15T07:08:59.941Z,45
2022-11-15T07:09:59.887Z,50
2022-11-15T07:10:59.917Z,50
2022-11-15T07:12:03.308Z,50
2022-11-15T07:13:00.191Z,50
2022-11-15T07:14:00.207Z,50
2022-11-15T07:15:00.795Z,55
2022-11-15T07:16:00.777Z,55
2022-11-15T07:17:01.638Z,55
2022-11-15T07:18:00.622Z,60
2022-11-15T07:19:00.265Z,60
2022-11-15T07:19:59.810Z,60
2022-11-15T07:21:00.292Z,60
2022-11-15T07:22:00.309Z,60
2022-11-15T07:22:59.712Z,60
2022-11-15T07:23:59.942Z,65
2022-11-15T07:25:00.523Z,65
2022-11-15T07:26:00.563Z,65
2022-11-15T07:27:00.898Z,65
2022-11-15T07:28:01.598Z,70
2022-11-15T07:29:00.531Z,70
2022-11-15T07:30:00.514Z,70
2022-11-15T07:31:00.052Z,70
2022-11-15T07:32:00.045Z,70
2022-11-15T07:33:01.058Z,75
2022-11-15T07:33:59.802Z,75
2022-11-15T07:35:00.325Z,75
2022-11-15T07:36:00.195Z,75
2022-11-15T07:37:00.125Z,75
2022-11-15T07:37:59.977Z,75
2022-11-15T07:38:59.919Z,80
2022-11-15T07:40:00.321Z,80
2022-11-15T07:41:00.007Z,80
2022-11-15T07:42:00.692Z,80
2022-11-15T07:43:00.331Z,80
2022-11-15T07:44:00.844Z,80
2022-11-15T07:45:00.543Z,80
2022-11-15T07:46:06.992Z,80
2022-11-15T07:47:00.946Z,80
2022-11-15T07:48:01.021Z,85
2022-11-15T07:49:01.890Z,85
2022-11-15T07:50:00.146Z,85
2022-11-15T07:51:00.142Z,85
2022-11-15T07:51:59.896Z,85
2022-11-15T07:52:59.971Z,85
2022-11-15T07:54:00.899Z,85
2022-11-15T07:55:00.511Z,90
2022-11-15T07:56:00.673Z,90
2022-11-15T07:57:07.666Z,90
2022-11-15T07:58:00.192Z,90
2022-11-15T07:59:02.337Z,90
2022-11-15T08:00:02.377Z,90
2022-11-15T08:01:01.239Z,90
2022-11-15T08:02:00.838Z,90
2022-11-15T08:03:01.170Z,90
2022-11-15T08:04:00.492Z,95
2022-11-15T08:05:01.404Z,95
2022-11-15T08:06:00.254Z,95
2022-11-15T08:07:01.064Z,95
2022-11-15T08:08:01.761Z,95
2022-11-15T08:09:00.198Z,95
2022-11-15T08:10:00.015Z,95
2022-11-15T08:11:00.310Z,95
2022-11-15T08:12:00.959Z,95
2022-11-15T08:13:00.931Z,95
2022-11-15T08:14:00.309Z,95
2022-11-15T08:15:00.950Z,100
2022-11-15T08:16:06.928Z,100
2022-11-15T08:17:00.875Z,100
2022-11-15T08:18:00.324Z,100
2022-11-15T08:19:00.091Z,100
2022-11-15T08:20:00.122Z,100
2022-11-15T08:21:02.020Z,100
2022-11-15T08:22:00.353Z,100
2022-11-15T08:23:00.095Z,100
2022-11-15T08:24:00.125Z,100
2022-11-15T08:25:01.030Z,105
2022-11-15T08:26:00.974Z,105
2022-11-15T08:27:01.120Z,105
2022-11-15T08:28:01.330Z,105
2022-11-15T08:29:00.148Z,110
2022-11-15T08:30:06.573Z,110
2022-11-15T08:31:01.028Z,105
2022-11-15T08:32:00.203Z,105
2022-11-15T08:33:00.288Z,105
2022-11-15T08:34:00.720Z,110
2022-11-15T08:35:00.447Z,110
2022-11-15T08:36:00.991Z,110
2022-11-15T08:37:01.450Z,110
2022-11-15T08:38:00.593Z,110
2022-11-15T08:39:00.297Z,110
2022-11-15T08:40:01.022Z,110
2022-11-15T08:41:00.235Z,110
2022-11-15T08:42:00.508Z,115
2022-11-15T08:43:00.263Z,115
2022-11-15T08:44:00.990Z,115
2022-11-15T08:45:00.726Z,115
2022-11-15T08:46:02.124Z,115
2022-11-15T08:47:01.128Z,115
2022-11-15T08:48:03.819Z,115
2022-11-15T08:49:00.617Z,115
2022-11-15T08:50:00.343Z,120
2022-11-15T08:51:00.493Z,115
2022-11-15T08:52:00.375Z,115
2022-11-15T08:53:01.644Z,115
2022-11-15T08:54:00.652Z,115
2022-11-15T08:55:01.309Z,120
2022-11-15T08:56:00.373Z,125
2022-11-15T08:57:00.940Z,120
2022-11-15T08:58:00.417Z,120
2022-11-15T08:59:00.377Z,120
2022-11-15T09:00:01.527Z,120
2022-11-15T09:01:00.971Z,120
2022-11-15T09:02:00.855Z,120
2022-11-15T09:03:00.982Z,120
2022-11-15T09:04:00.692Z,120
2022-11-15T09:05:01.241Z,120
2022-11-15T09:06:01.396Z,120
2022-11-15T09:07:00.821Z,120
2022-11-15T09:08:00.822Z,120
2022-11-15T09:09:02.137Z,125
2022-11-15T09:10:00.505Z,125
2022-11-15T09:11:00.527Z,125
2022-11-15T09:12:07.555Z,125
2022-11-15T09:13:00.811Z,125
2022-11-15T09:14:00.993Z,125
2022-11-15T09:15:01.216Z,125
2022-11-15T09:16:01.824Z,125
2022-11-15T09:17:00.836Z,125
2022-11-15T09:18:00.629Z,125
2022-11-15T09:19:01.053Z,125
2022-11-15T09:20:00.632Z,125
2022-11-15T09:21:01.208Z,125
2022-11-15T09:22:01.133Z,125
2022-11-15T09:23:01.421Z,125
2022-11-15T09:24:00.662Z,125
2022-11-15T09:25:01.887Z,125
2022-11-15T09:26:01.190Z,130
2022-11-15T09:27:01.263Z,130
2022-11-15T09:28:00.987Z,130
2022-11-15T09:29:01.809Z,130
2022-11-15T09:30:01.015Z,130
2022-11-15T09:31:01.036Z,130
2022-11-15T09:32:01.052Z,130
2022-11-15T09:33:00.714Z,130
2022-11-15T09:34:01.118Z,130
2022-11-15T09:35:01.051Z,130
2022-11-15T09:36:00.855Z,130
2022-11-15T09:37:00.920Z,130
2022-11-15T09:38:05.191Z,130
2022-11-15T09:39:01.032Z,130
2022-11-15T09:40:01.115Z,130
2022-11-15T09:41:01.966Z,130
2022-11-15T09:42:00.856Z,130
2022-11-15T09:43:01.102Z,130
2022-11-15T09:44:01.382Z,130
2022-11-15T09:45:01.404Z,130
2022-11-15T09:46:01.175Z,130
2022-11-15T09:47:00.952Z,130
2022-11-15T09:48:02.453Z,130
2022-11-15T09:49:01.775Z,135
2022-11-15T09:50:05.600Z,135
2022-11-15T09:51:01.668Z,135
2022-11-15T09:52:01.070Z,135
2022-11-15T09:53:01.796Z,135
2022-11-15T09:55:00.145Z,135
2022-11-15T09:56:10.169Z,135
2022-11-15T09:57:16.396Z,135
2022-11-15T09:58:09.276Z,135
2022-11-15T09:59:09.261Z,135
2022-11-15T10:00:57.266Z,135
2022-11-15T10:02:09.524Z,135
2022-11-15T10:03:09.911Z,135
2022-11-15T10:04:16.522Z,135
2022-11-15T10:05:09.599Z,135
2022-11-15T10:06:09.459Z,140
2022-11-15T10:07:10.311Z,135
2022-11-15T10:08:10.056Z,135
2022-11-15T10:09:09.599Z,135
2022-11-15T10:10:09.772Z,135
2022-11-15T10:11:46.988Z,135
2022-11-15T10:12:10.469Z,135
2022-11-15T10:13:09.945Z,135
2022-11-15T10:14:09.493Z,135
2022-11-15T10:15:09.518Z,135
2022-11-15T10:16:09.751Z,135
2022-11-15T10:17:09.229Z,135
2022-11-15T10:18:09.307Z,135
2022-11-15T10:19:09.698Z,140
2022-11-15T10:20:14.986Z,140
2022-11-15T10:21:10.939Z,140
2022-11-15T10:22:09.855Z,140
2022-11-15T10:23:10.294Z,140
2022-11-15T10:24:10.005Z,140
2022-11-15T10:25:10.122Z,140
2022-11-15T10:26:16.100Z,140
2022-11-15T10:27:10.849Z,140
2022-11-15T10:28:09.704Z,140
2022-11-15T10:29:10.177Z,140
2022-11-15T10:30:10.603Z,140
2022-11-15T10:31:13.036Z,140
2022-11-15T10:32:10.132Z,140
2022-11-15T10:33:09.919Z,140
2022-11-15T10:34:09.933Z,140
2022-11-15T10:35:09.946Z,140
2022-11-15T10:36:10.210Z,140
2022-11-15T10:37:10.582Z,140
2022-11-15T10:38:10.290Z,140
2022-11-15T10:39:10.064Z,140
2022-11-15T10:40:09.775Z,140
2022-11-15T10:41:12.241Z,140
2022-11-15T10:42:22.927Z,140
2022-11-15T10:43:09.664Z,140
2022-11-15T10:44:10.149Z,140
2022-11-15T10:45:10.107Z,140
